sensor_id;sensor_type;location;lat;lon;timestamp;P1;durP1;ratioP1;P2;durP2;ratioP2
64426;SDS011;50772;51.482;-0.580;2023-07-29T00:01:47;1.05;;;1.05;;
64426;SDS011;50772;51.482;-0.580;2023-07-29T00:04:36;1.85;;;1.00;;
64426;SDS011;50772;51.482;-0.580;2023-07-29T00:10:09;2.70;;;1.30;;
64426;SDS011;50772;51.482;-0.580;2023-07-29T00:15:33;1.30;;;1.20;;
64426;SDS011;50772;51.482;-0.580;2023-07-29T00:18:13;1.27;;;1.17;;
64426;SDS011;50772;51.482;-0.580;2023-07-29T00:30:02;1.40;;;1.30;;
64426;SDS011;50772;51.482;-0.580;2023-07-29T00:39:11;1.50;;;1.50;;
64426;SDS011;50772;51.482;-0.580;2023-07-29T00:44:19;2.95;;;1.33;;
64426;SDS011;50772;51.482;-0.580;2023-07-29T00:46:59;1.42;;;1.40;;
64426;SDS011;50772;51.482;-0.580;2023-07-29T00:49:46;3.72;;;1.60;;
64426;SDS011;50772;51.482;-0.580;2023-07-29T00:52:12;2.03;;;1.90;;
64426;SDS011;50772;51.482;-0.580;2023-07-29T00:54:42;1.92;;;1.83;;
64426;SDS011;50772;51.482;-0.580;2023-07-29T01:03:08;1.90;;;1.80;;
64426;SDS011;50772;51.482;-0.580;2023-07-29T01:05:36;3.15;;;1.70;;
64426;SDS011;50772;51.482;-0.580;2023-07-29T01:36:46;2.03;;;1.92;;
64426;SDS011;50772;51.482;-0.580;2023-07-29T02:02:32;5.38;;;2.13;;
64426;SDS011;50772;51.482;-0.580;2023-07-29T02:05:03;2.08;;;1.95;;
64426;SDS011;50772;51.482;-0.580;2023-07-29T02:07:47;2.25;;;2.15;;
64426;SDS011;50772;51.482;-0.580;2023-07-29T02:13:17;2.53;;;2.08;;
64426;SDS011;50772;51.482;-0.580;2023-07-29T02:15:51;2.63;;;2.00;;
64426;SDS011;50772;51.482;-0.580;2023-07-29T02:30:41;2.00;;;1.90;;
64426;SDS011;50772;51.482;-0.580;2023-07-29T02:46:49;8.57;;;3.20;;
64426;SDS011;50772;51.482;-0.580;2023-07-29T02:49:35;2.78;;;2.35;;
64426;SDS011;50772;51.482;-0.580;2023-07-29T02:54:44;3.80;;;2.13;;
64426;SDS011;50772;51.482;-0.580;2023-07-29T02:57:10;3.78;;;2.53;;
64426;SDS011;50772;51.482;-0.580;2023-07-29T02:59:39;5.00;;;2.20;;
64426;SDS011;50772;51.482;-0.580;2023-07-29T03:04:47;2.65;;;2.50;;
64426;SDS011;50772;51.482;-0.580;2023-07-29T03:07:34;2.95;;;2.47;;
64426;SDS011;50772;51.482;-0.580;2023-07-29T03:10:42;2.60;;;2.40;;
64426;SDS011;50772;51.482;-0.580;2023-07-29T03:13:43;4.95;;;2.33;;
64426;SDS011;50772;51.482;-0.580;2023-07-29T03:16:42;2.80;;;2.35;;
64426;SDS011;50772;51.482;-0.580;2023-07-29T03:19:34;2.90;;;2.67;;
64426;SDS011;50772;51.482;-0.580;2023-07-29T03:22:01;3.03;;;2.60;;
64426;SDS011;50772;51.482;-0.580;2023-07-29T03:24:34;2.78;;;2.35;;
64426;SDS011;50772;51.482;-0.580;2023-07-29T03:27:14;2.83;;;2.45;;
64426;SDS011;50772;51.482;-0.580;2023-07-29T03:29:59;2.58;;;2.38;;
64426;SDS011;50772;51.482;-0.580;2023-07-29T03:32:54;3.00;;;2.60;;
64426;SDS011;50772;51.482;-0.580;2023-07-29T03:35:38;2.70;;;2.50;;
64426;SDS011;50772;51.482;-0.580;2023-07-29T03:41:15;3.13;;;2.63;;
64426;SDS011;50772;51.482;-0.580;2023-07-29T03:43:47;4.68;;;2.58;;
64426;SDS011;50772;51.482;-0.580;2023-07-29T03:46:23;3.28;;;2.70;;
64426;SDS011;50772;51.482;-0.580;2023-07-29T03:49:04;2.53;;;2.38;;
64426;SDS011;50772;51.482;-0.580;2023-07-29T03:51:42;3.83;;;2.80;;
64426;SDS011;50772;51.482;-0.580;2023-07-29T03:54:28;4.90;;;2.40;;
64426;SDS011;50772;51.482;-0.580;2023-07-29T03:56:58;3.80;;;2.50;;
64426;SDS011;50772;51.482;-0.580;2023-07-29T04:02:33;3.17;;;2.57;;
64426;SDS011;50772;51.482;-0.580;2023-07-29T04:05:22;3.70;;;2.40;;
64426;SDS011;50772;51.482;-0.580;2023-07-29T04:07:50;7.32;;;3.10;;
64426;SDS011;50772;51.482;-0.580;2023-07-29T04:10:22;3.30;;;2.30;;
64426;SDS011;50772;51.482;-0.580;2023-07-29T04:12:47;7.38;;;2.92;;
64426;SDS011;50772;51.482;-0.580;2023-07-29T04:15:27;6.90;;;2.60;;
64426;SDS011;50772;51.482;-0.580;2023-07-29T04:20:54;2.80;;;2.60;;
64426;SDS011;50772;51.482;-0.580;2023-07-29T04:23:42;7.15;;;2.90;;
64426;SDS011;50772;51.482;-0.580;2023-07-29T04:26:15;4.40;;;2.85;;
64426;SDS011;50772;51.482;-0.580;2023-07-29T04:28:40;5.63;;;2.70;;
64426;SDS011;50772;51.482;-0.580;2023-07-29T04:31:11;2.92;;;2.72;;
64426;SDS011;50772;51.482;-0.580;2023-07-29T04:33:41;4.05;;;2.83;;
64426;SDS011;50772;51.482;-0.580;2023-07-29T04:36:32;3.40;;;3.08;;
64426;SDS011;50772;51.482;-0.580;2023-07-29T04:39:15;3.03;;;2.67;;
64426;SDS011;50772;51.482;-0.580;2023-07-29T04:44:57;7.05;;;2.58;;
64426;SDS011;50772;51.482;-0.580;2023-07-29T04:47:28;4.25;;;2.55;;
64426;SDS011;50772;51.482;-0.580;2023-07-29T04:50:14;5.18;;;2.65;;
64426;SDS011;50772;51.482;-0.580;2023-07-29T04:56:04;6.35;;;2.70;;
64426;SDS011;50772;51.482;-0.580;2023-07-29T04:58:48;4.82;;;2.75;;
64426;SDS011;50772;51.482;-0.580;2023-07-29T05:04:05;4.32;;;2.75;;
64426;SDS011;50772;51.482;-0.580;2023-07-29T05:06:32;4.53;;;2.88;;
64426;SDS011;50772;51.482;-0.580;2023-07-29T05:12:09;4.38;;;2.67;;
64426;SDS011;50772;51.482;-0.580;2023-07-29T05:18:02;4.10;;;2.70;;
64426;SDS011;50772;51.482;-0.580;2023-07-29T05:20:47;4.88;;;3.08;;
64426;SDS011;50772;51.482;-0.580;2023-07-29T06:00:40;2.50;;;2.35;;
64426;SDS011;50772;51.482;-0.580;2023-07-29T06:03:18;2.50;;;2.17;;
64426;SDS011;50772;51.482;-0.580;2023-07-29T06:05:53;4.25;;;2.33;;
64426;SDS011;50772;51.482;-0.580;2023-07-29T06:08:41;2.88;;;2.25;;
64426;SDS011;50772;51.482;-0.580;2023-07-29T06:11:10;3.30;;;2.35;;
64426;SDS011;50772;51.482;-0.580;2023-07-29T06:16:26;4.50;;;2.05;;
64426;SDS011;50772;51.482;-0.580;2023-07-29T06:24:56;2.13;;;1.90;;
64426;SDS011;50772;51.482;-0.580;2023-07-29T06:41:51;1.92;;;1.48;;
64426;SDS011;50772;51.482;-0.580;2023-07-29T06:47:15;1.60;;;1.50;;
64426;SDS011;50772;51.482;-0.580;2023-07-29T06:49:43;1.45;;;1.40;;
64426;SDS011;50772;51.482;-0.580;2023-07-29T06:52:26;1.30;;;1.30;;
64426;SDS011;50772;51.482;-0.580;2023-07-29T06:54:59;1.52;;;1.42;;
64426;SDS011;50772;51.482;-0.580;2023-07-29T06:58:02;1.40;;;1.30;;
64426;SDS011;50772;51.482;-0.580;2023-07-29T07:09:19;2.85;;;1.75;;
64426;SDS011;50772;51.482;-0.580;2023-07-29T07:12:18;1.30;;;1.30;;
64426;SDS011;50772;51.482;-0.580;2023-07-29T07:17:43;1.23;;;1.23;;
64426;SDS011;50772;51.482;-0.580;2023-07-29T07:28:29;1.30;;;1.20;;
64426;SDS011;50772;51.482;-0.580;2023-07-29T07:33:33;3.40;;;1.25;;
64426;SDS011;50772;51.482;-0.580;2023-07-29T07:36:16;1.48;;;1.33;;
64426;SDS011;50772;51.482;-0.580;2023-07-29T07:38:42;1.33;;;1.23;;
64426;SDS011;50772;51.482;-0.580;2023-07-29T07:41:07;1.38;;;1.27;;
64426;SDS011;50772;51.482;-0.580;2023-07-29T07:46:00;1.10;;;1.10;;
64426;SDS011;50772;51.482;-0.580;2023-07-29T07:48:34;1.38;;;1.02;;
64426;SDS011;50772;51.482;-0.580;2023-07-29T07:50:59;1.00;;;1.00;;
64426;SDS011;50772;51.482;-0.580;2023-07-29T07:53:27;0.88;;;0.88;;
64426;SDS011;50772;51.482;-0.580;2023-07-29T07:59:03;1.10;;;0.90;;
64426;SDS011;50772;51.482;-0.580;2023-07-29T08:01:38;2.70;;;1.00;;
64426;SDS011;50772;51.482;-0.580;2023-07-29T08:04:06;1.40;;;1.30;;
64426;SDS011;50772;51.482;-0.580;2023-07-29T08:06:32;1.10;;;1.05;;
64426;SDS011;50772;51.482;-0.580;2023-07-29T08:09:06;1.00;;;0.93;;
64426;SDS011;50772;51.482;-0.580;2023-07-29T08:17:02;1.10;;;1.00;;
64426;SDS011;50772;51.482;-0.580;2023-07-29T08:30:27;1.20;;;0.90;;
64426;SDS011;50772;51.482;-0.580;2023-07-29T08:32:58;0.88;;;0.88;;
64426;SDS011;50772;51.482;-0.580;2023-07-29T09:43:05;1.03;;;1.00;;
64426;SDS011;50772;51.482;-0.580;2023-07-29T09:45:32;1.80;;;0.90;;
64426;SDS011;50772;51.482;-0.580;2023-07-29T09:48:01;1.17;;;1.08;;
64426;SDS011;50772;51.482;-0.580;2023-07-29T09:50:32;1.27;;;1.17;;
64426;SDS011;50772;51.482;-0.580;2023-07-29T09:53:10;1.23;;;1.10;;
64426;SDS011;50772;51.482;-0.580;2023-07-29T09:58:04;1.57;;;1.47;;
64426;SDS011;50772;51.482;-0.580;2023-07-29T10:00:33;1.75;;;1.20;;
64426;SDS011;50772;51.482;-0.580;2023-07-29T10:02:59;1.00;;;1.00;;
64426;SDS011;50772;51.482;-0.580;2023-07-29T10:05:28;1.00;;;1.00;;
64426;SDS011;50772;51.482;-0.580;2023-07-29T10:08:05;1.38;;;1.00;;
64426;SDS011;50772;51.482;-0.580;2023-07-29T10:10:34;4.43;;;1.33;;
64426;SDS011;50772;51.482;-0.580;2023-07-29T10:15:24;1.57;;;1.20;;
64426;SDS011;50772;51.482;-0.580;2023-07-29T10:17:50;1.98;;;1.00;;
64426;SDS011;50772;51.482;-0.580;2023-07-29T10:20:16;2.65;;;1.10;;
64426;SDS011;50772;51.482;-0.580;2023-07-29T10:27:57;2.92;;;1.30;;
64426;SDS011;50772;51.482;-0.580;2023-07-29T10:30:25;1.52;;;1.10;;
64426;SDS011;50772;51.482;-0.580;2023-07-29T10:32:53;2.20;;;1.00;;
64426;SDS011;50772;51.482;-0.580;2023-07-29T10:35:41;4.72;;;1.38;;
64426;SDS011;50772;51.482;-0.580;2023-07-29T10:38:19;2.75;;;1.17;;
64426;SDS011;50772;51.482;-0.580;2023-07-29T10:40:47;2.13;;;1.23;;
64426;SDS011;50772;51.482;-0.580;2023-07-29T10:46:27;0.80;;;0.80;;
64426;SDS011;50772;51.482;-0.580;2023-07-29T10:51:37;1.92;;;1.17;;
64426;SDS011;50772;51.482;-0.580;2023-07-29T10:56:30;1.50;;;1.00;;
64426;SDS011;50772;51.482;-0.580;2023-07-29T10:59:02;2.00;;;1.23;;
64426;SDS011;50772;51.482;-0.580;2023-07-29T11:01:51;1.75;;;0.93;;
64426;SDS011;50772;51.482;-0.580;2023-07-29T11:09:42;2.22;;;0.98;;
64426;SDS011;50772;51.482;-0.580;2023-07-29T11:17:26;1.30;;;1.20;;
64426;SDS011;50772;51.482;-0.580;2023-07-29T11:32:57;2.20;;;1.20;;
64426;SDS011;50772;51.482;-0.580;2023-07-29T11:40:34;1.10;;;0.90;;
64426;SDS011;50772;51.482;-0.580;2023-07-29T11:43:01;1.08;;;0.77;;
64426;SDS011;50772;51.482;-0.580;2023-07-29T11:47:57;0.82;;;0.80;;
64426;SDS011;50772;51.482;-0.580;2023-07-29T11:53:18;2.30;;;1.05;;
64426;SDS011;50772;51.482;-0.580;2023-07-29T11:55:44;1.45;;;1.23;;
64426;SDS011;50772;51.482;-0.580;2023-07-29T12:03:22;1.45;;;0.82;;
64426;SDS011;50772;51.482;-0.580;2023-07-29T12:06:02;1.70;;;0.55;;
64426;SDS011;50772;51.482;-0.580;2023-07-29T12:16:28;0.75;;;0.75;;
64426;SDS011;50772;51.482;-0.580;2023-07-29T12:19:08;1.58;;;0.80;;
64426;SDS011;50772;51.482;-0.580;2023-07-29T12:21:33;1.23;;;0.80;;
64426;SDS011;50772;51.482;-0.580;2023-07-29T12:24:07;1.38;;;1.27;;
64426;SDS011;50772;51.482;-0.580;2023-07-29T12:26:37;0.88;;;0.80;;
64426;SDS011;50772;51.482;-0.580;2023-07-29T12:29:15;0.77;;;0.77;;
64426;SDS011;50772;51.482;-0.580;2023-07-29T12:31:40;0.82;;;0.80;;
64426;SDS011;50772;51.482;-0.580;2023-07-29T12:34:08;1.02;;;0.90;;
64426;SDS011;50772;51.482;-0.580;2023-07-29T12:36:46;1.08;;;1.05;;
64426;SDS011;50772;51.482;-0.580;2023-07-29T12:39:25;0.68;;;0.68;;
64426;SDS011;50772;51.482;-0.580;2023-07-29T12:44:23;0.97;;;0.90;;
64426;SDS011;50772;51.482;-0.580;2023-07-29T12:47:08;0.95;;;0.82;;
64426;SDS011;50772;51.482;-0.580;2023-07-29T12:54:43;0.98;;;0.88;;
64426;SDS011;50772;51.482;-0.580;2023-07-29T12:57:09;1.85;;;0.77;;
64426;SDS011;50772;51.482;-0.580;2023-07-29T12:59:34;0.50;;;0.50;;
64426;SDS011;50772;51.482;-0.580;2023-07-29T13:02:04;1.13;;;0.70;;
64426;SDS011;50772;51.482;-0.580;2023-07-29T13:07:05;0.73;;;0.73;;
64426;SDS011;50772;51.482;-0.580;2023-07-29T13:09:31;0.90;;;0.80;;
64426;SDS011;50772;51.482;-0.580;2023-07-29T13:11:57;0.77;;;0.77;;
64426;SDS011;50772;51.482;-0.580;2023-07-29T13:19:30;2.22;;;0.77;;
64426;SDS011;50772;51.482;-0.580;2023-07-29T13:21:58;1.50;;;0.95;;
64426;SDS011;50772;51.482;-0.580;2023-07-29T13:24:26;1.73;;;1.10;;
64426;SDS011;50772;51.482;-0.580;2023-07-29T13:26:52;2.08;;;0.90;;
64426;SDS011;50772;51.482;-0.580;2023-07-29T13:29:20;1.52;;;1.00;;
64426;SDS011;50772;51.482;-0.580;2023-07-29T13:31:54;0.70;;;0.70;;
64426;SDS011;50772;51.482;-0.580;2023-07-29T13:36:53;1.15;;;0.73;;
64426;SDS011;50772;51.482;-0.580;2023-07-29T13:41:46;0.70;;;0.70;;
64426;SDS011;50772;51.482;-0.580;2023-07-29T13:44:12;0.83;;;0.83;;
64426;SDS011;50772;51.482;-0.580;2023-07-29T13:49:13;1.00;;;0.90;;
64426;SDS011;50772;51.482;-0.580;2023-07-29T13:51:44;1.20;;;1.10;;
64426;SDS011;50772;51.482;-0.580;2023-07-29T13:54:29;0.70;;;0.70;;
64426;SDS011;50772;51.482;-0.580;2023-07-29T13:57:01;1.80;;;0.90;;
64426;SDS011;50772;51.482;-0.580;2023-07-29T13:59:35;4.63;;;1.03;;
64426;SDS011;50772;51.482;-0.580;2023-07-29T14:02:03;1.02;;;0.90;;
64426;SDS011;50772;51.482;-0.580;2023-07-29T14:04:40;1.25;;;1.02;;
64426;SDS011;50772;51.482;-0.580;2023-07-29T14:07:10;1.50;;;1.13;;
64426;SDS011;50772;51.482;-0.580;2023-07-29T14:09:37;1.08;;;0.93;;
64426;SDS011;50772;51.482;-0.580;2023-07-29T14:12:04;5.10;;;1.23;;
64426;SDS011;50772;51.482;-0.580;2023-07-29T14:22:43;1.92;;;0.98;;
64426;SDS011;50772;51.482;-0.580;2023-07-29T14:25:16;1.50;;;0.98;;
64426;SDS011;50772;51.482;-0.580;2023-07-29T14:27:46;1.77;;;1.00;;
64426;SDS011;50772;51.482;-0.580;2023-07-29T14:32:46;4.55;;;1.20;;
64426;SDS011;50772;51.482;-0.580;2023-07-29T14:37:49;1.10;;;1.10;;
64426;SDS011;50772;51.482;-0.580;2023-07-29T14:42:53;2.40;;;1.15;;
64426;SDS011;50772;51.482;-0.580;2023-07-29T14:45:18;1.42;;;0.80;;
64426;SDS011;50772;51.482;-0.580;2023-07-29T14:50:29;2.17;;;1.20;;
64426;SDS011;50772;51.482;-0.580;2023-07-29T14:55:57;1.13;;;1.02;;
64426;SDS011;50772;51.482;-0.580;2023-07-29T14:58:28;3.30;;;1.02;;
64426;SDS011;50772;51.482;-0.580;2023-07-29T15:00:56;1.13;;;1.02;;
64426;SDS011;50772;51.482;-0.580;2023-07-29T15:03:22;3.08;;;0.73;;
64426;SDS011;50772;51.482;-0.580;2023-07-29T15:05:48;4.25;;;1.63;;
64426;SDS011;50772;51.482;-0.580;2023-07-29T15:10:49;0.82;;;0.73;;
64426;SDS011;50772;51.482;-0.580;2023-07-29T15:13:17;0.80;;;0.80;;
64426;SDS011;50772;51.482;-0.580;2023-07-29T15:15:42;1.23;;;0.80;;
64426;SDS011;50772;51.482;-0.580;2023-07-29T15:18:11;0.75;;;0.70;;
64426;SDS011;50772;51.482;-0.580;2023-07-29T15:20:36;1.00;;;0.80;;
64426;SDS011;50772;51.482;-0.580;2023-07-29T15:23:04;2.57;;;0.70;;
64426;SDS011;50772;51.482;-0.580;2023-07-29T15:25:29;2.73;;;0.50;;
64426;SDS011;50772;51.482;-0.580;2023-07-29T15:27:57;0.50;;;0.50;;
64426;SDS011;50772;51.482;-0.580;2023-07-29T15:30:26;1.40;;;0.75;;
64426;SDS011;50772;51.482;-0.580;2023-07-29T15:32:54;4.18;;;0.80;;
64426;SDS011;50772;51.482;-0.580;2023-07-29T15:35:21;0.60;;;0.60;;
64426;SDS011;50772;51.482;-0.580;2023-07-29T15:37:46;0.80;;;0.73;;
64426;SDS011;50772;51.482;-0.580;2023-07-29T15:40:11;0.97;;;0.83;;
64426;SDS011;50772;51.482;-0.580;2023-07-29T15:42:37;1.40;;;0.93;;
64426;SDS011;50772;51.482;-0.580;2023-07-29T15:45:09;1.60;;;1.13;;
64426;SDS011;50772;51.482;-0.580;2023-07-29T15:47:46;1.00;;;0.97;;
64426;SDS011;50772;51.482;-0.580;2023-07-29T15:50:12;2.35;;;0.98;;
64426;SDS011;50772;51.482;-0.580;2023-07-29T15:55:21;4.72;;;1.15;;
64426;SDS011;50772;51.482;-0.580;2023-07-29T15:57:47;1.80;;;0.82;;
64426;SDS011;50772;51.482;-0.580;2023-07-29T16:00:12;1.13;;;1.00;;
64426;SDS011;50772;51.482;-0.580;2023-07-29T16:02:43;3.90;;;0.90;;
64426;SDS011;50772;51.482;-0.580;2023-07-29T16:05:10;1.60;;;1.00;;
64426;SDS011;50772;51.482;-0.580;2023-07-29T16:07:35;1.67;;;1.15;;
64426;SDS011;50772;51.482;-0.580;2023-07-29T16:10:01;1.50;;;0.73;;
64426;SDS011;50772;51.482;-0.580;2023-07-29T16:12:26;1.20;;;1.00;;
64426;SDS011;50772;51.482;-0.580;2023-07-29T16:14:51;3.85;;;1.20;;
64426;SDS011;50772;51.482;-0.580;2023-07-29T16:17:17;1.35;;;1.10;;
64426;SDS011;50772;51.482;-0.580;2023-07-29T16:19:55;2.42;;;1.10;;
64426;SDS011;50772;51.482;-0.580;2023-07-29T16:22:20;1.52;;;1.00;;
64426;SDS011;50772;51.482;-0.580;2023-07-29T16:24:46;3.42;;;1.00;;
64426;SDS011;50772;51.482;-0.580;2023-07-29T16:27:14;2.67;;;1.35;;
64426;SDS011;50772;51.482;-0.580;2023-07-29T16:29:42;4.87;;;1.00;;
64426;SDS011;50772;51.482;-0.580;2023-07-29T16:32:08;1.45;;;1.20;;
64426;SDS011;50772;51.482;-0.580;2023-07-29T16:34:33;3.50;;;1.30;;
64426;SDS011;50772;51.482;-0.580;2023-07-29T16:36:58;1.90;;;1.07;;
64426;SDS011;50772;51.482;-0.580;2023-07-29T16:39:26;2.22;;;1.33;;
64426;SDS011;50772;51.482;-0.580;2023-07-29T16:41:52;1.52;;;1.02;;
64426;SDS011;50772;51.482;-0.580;2023-07-29T16:44:17;4.78;;;1.17;;
64426;SDS011;50772;51.482;-0.580;2023-07-29T16:46:43;2.30;;;1.13;;
64426;SDS011;50772;51.482;-0.580;2023-07-29T16:49:09;2.25;;;1.35;;
64426;SDS011;50772;51.482;-0.580;2023-07-29T16:51:34;5.68;;;1.10;;
64426;SDS011;50772;51.482;-0.580;2023-07-29T16:54:06;3.08;;;0.98;;
64426;SDS011;50772;51.482;-0.580;2023-07-29T16:56:31;4.20;;;1.30;;
64426;SDS011;50772;51.482;-0.580;2023-07-29T16:58:57;4.28;;;1.20;;
64426;SDS011;50772;51.482;-0.580;2023-07-29T17:01:23;5.88;;;1.02;;
64426;SDS011;50772;51.482;-0.580;2023-07-29T17:03:48;1.70;;;1.05;;
64426;SDS011;50772;51.482;-0.580;2023-07-29T17:06:13;2.00;;;1.00;;
64426;SDS011;50772;51.482;-0.580;2023-07-29T17:08:39;3.60;;;1.73;;
64426;SDS011;50772;51.482;-0.580;2023-07-29T17:11:04;3.45;;;1.10;;
64426;SDS011;50772;51.482;-0.580;2023-07-29T17:13:31;1.40;;;0.90;;
64426;SDS011;50772;51.482;-0.580;2023-07-29T17:15:57;1.63;;;1.20;;
64426;SDS011;50772;51.482;-0.580;2023-07-29T17:18:22;3.75;;;1.15;;
64426;SDS011;50772;51.482;-0.580;2023-07-29T17:20:48;2.20;;;0.87;;
64426;SDS011;50772;51.482;-0.580;2023-07-29T17:23:13;2.03;;;0.90;;
64426;SDS011;50772;51.482;-0.580;2023-07-29T17:25:38;4.23;;;0.80;;
64426;SDS011;50772;51.482;-0.580;2023-07-29T17:28:04;1.35;;;0.95;;
64426;SDS011;50772;51.482;-0.580;2023-07-29T17:30:41;1.35;;;0.70;;
64426;SDS011;50772;51.482;-0.580;2023-07-29T17:33:09;4.60;;;0.95;;
64426;SDS011;50772;51.482;-0.580;2023-07-29T17:35:41;0.70;;;0.70;;
64426;SDS011;50772;51.482;-0.580;2023-07-29T17:38:07;2.30;;;0.98;;
64426;SDS011;50772;51.482;-0.580;2023-07-29T17:40:36;1.25;;;0.90;;
64426;SDS011;50772;51.482;-0.580;2023-07-29T17:43:02;1.52;;;1.00;;
64426;SDS011;50772;51.482;-0.580;2023-07-29T17:45:29;1.20;;;0.75;;
64426;SDS011;50772;51.482;-0.580;2023-07-29T17:53:05;2.60;;;0.80;;
64426;SDS011;50772;51.482;-0.580;2023-07-29T17:55:42;1.73;;;1.15;;
64426;SDS011;50772;51.482;-0.580;2023-07-29T17:58:08;2.67;;;1.17;;
64426;SDS011;50772;51.482;-0.580;2023-07-29T18:00:35;2.00;;;1.08;;
64426;SDS011;50772;51.482;-0.580;2023-07-29T18:03:01;2.33;;;0.98;;
64426;SDS011;50772;51.482;-0.580;2023-07-29T18:05:29;3.40;;;0.82;;
64426;SDS011;50772;51.482;-0.580;2023-07-29T18:07:58;1.30;;;1.05;;
64426;SDS011;50772;51.482;-0.580;2023-07-29T18:10:26;2.53;;;0.80;;
64426;SDS011;50772;51.482;-0.580;2023-07-29T18:13:06;3.47;;;1.02;;
64426;SDS011;50772;51.482;-0.580;2023-07-29T18:15:32;2.38;;;1.08;;
64426;SDS011;50772;51.482;-0.580;2023-07-29T18:17:57;2.95;;;0.93;;
64426;SDS011;50772;51.482;-0.580;2023-07-29T18:20:25;3.95;;;2.15;;
64426;SDS011;50772;51.482;-0.580;2023-07-29T18:22:54;2.22;;;1.40;;
64426;SDS011;50772;51.482;-0.580;2023-07-29T18:25:20;1.30;;;1.13;;
64426;SDS011;50772;51.482;-0.580;2023-07-29T18:27:49;1.20;;;0.90;;
64426;SDS011;50772;51.482;-0.580;2023-07-29T18:30:17;5.57;;;1.45;;
64426;SDS011;50772;51.482;-0.580;2023-07-29T18:38:28;1.35;;;1.15;;
64426;SDS011;50772;51.482;-0.580;2023-07-29T18:40:57;3.00;;;1.50;;
64426;SDS011;50772;51.482;-0.580;2023-07-29T18:43:24;2.20;;;1.23;;
64426;SDS011;50772;51.482;-0.580;2023-07-29T18:45:50;3.92;;;1.52;;
64426;SDS011;50772;51.482;-0.580;2023-07-29T18:48:22;2.88;;;2.13;;
64426;SDS011;50772;51.482;-0.580;2023-07-29T18:50:49;2.25;;;1.50;;
64426;SDS011;50772;51.482;-0.580;2023-07-29T18:53:36;1.27;;;1.23;;
64426;SDS011;50772;51.482;-0.580;2023-07-29T18:58:36;5.18;;;1.35;;
64426;SDS011;50772;51.482;-0.580;2023-07-29T19:01:01;1.65;;;1.13;;
64426;SDS011;50772;51.482;-0.580;2023-07-29T19:03:27;1.63;;;1.35;;
64426;SDS011;50772;51.482;-0.580;2023-07-29T19:06:01;3.28;;;1.10;;
64426;SDS011;50772;51.482;-0.580;2023-07-29T19:08:27;3.13;;;1.08;;
64426;SDS011;50772;51.482;-0.580;2023-07-29T19:10:52;2.15;;;1.02;;
64426;SDS011;50772;51.482;-0.580;2023-07-29T19:13:17;3.08;;;1.30;;
64426;SDS011;50772;51.482;-0.580;2023-07-29T19:15:49;2.97;;;1.35;;
64426;SDS011;50772;51.482;-0.580;2023-07-29T19:18:14;1.75;;;1.30;;
64426;SDS011;50772;51.482;-0.580;2023-07-29T19:20:39;2.23;;;1.10;;
64426;SDS011;50772;51.482;-0.580;2023-07-29T19:23:07;2.10;;;1.35;;
64426;SDS011;50772;51.482;-0.580;2023-07-29T19:25:33;4.77;;;1.60;;
64426;SDS011;50772;51.482;-0.580;2023-07-29T19:27:58;1.63;;;1.45;;
64426;SDS011;50772;51.482;-0.580;2023-07-29T19:30:23;5.87;;;1.33;;
64426;SDS011;50772;51.482;-0.580;2023-07-29T19:32:48;5.97;;;1.50;;
64426;SDS011;50772;51.482;-0.580;2023-07-29T19:35:14;3.30;;;1.25;;
64426;SDS011;50772;51.482;-0.580;2023-07-29T19:37:39;2.22;;;1.20;;
64426;SDS011;50772;51.482;-0.580;2023-07-29T19:40:05;2.78;;;1.58;;
64426;SDS011;50772;51.482;-0.580;2023-07-29T19:42:34;1.67;;;1.42;;
64426;SDS011;50772;51.482;-0.580;2023-07-29T19:44:59;1.83;;;1.17;;
64426;SDS011;50772;51.482;-0.580;2023-07-29T19:47:24;2.90;;;1.33;;
64426;SDS011;50772;51.482;-0.580;2023-07-29T19:49:50;5.72;;;1.45;;
64426;SDS011;50772;51.482;-0.580;2023-07-29T19:52:15;3.45;;;1.35;;
64426;SDS011;50772;51.482;-0.580;2023-07-29T19:54:40;2.70;;;1.58;;
64426;SDS011;50772;51.482;-0.580;2023-07-29T19:57:06;4.13;;;1.70;;
64426;SDS011;50772;51.482;-0.580;2023-07-29T19:59:32;2.92;;;1.20;;
64426;SDS011;50772;51.482;-0.580;2023-07-29T20:01:57;2.17;;;1.20;;
64426;SDS011;50772;51.482;-0.580;2023-07-29T20:04:22;3.22;;;1.20;;
64426;SDS011;50772;51.482;-0.580;2023-07-29T20:06:48;5.85;;;1.50;;
64426;SDS011;50772;51.482;-0.580;2023-07-29T20:09:18;4.15;;;1.48;;
64426;SDS011;50772;51.482;-0.580;2023-07-29T20:11:43;4.22;;;1.50;;
64426;SDS011;50772;51.482;-0.580;2023-07-29T20:14:11;1.80;;;1.40;;
64426;SDS011;50772;51.482;-0.580;2023-07-29T20:16:36;3.05;;;1.40;;
64426;SDS011;50772;51.482;-0.580;2023-07-29T20:19:04;2.38;;;1.63;;
64426;SDS011;50772;51.482;-0.580;2023-07-29T20:21:29;1.95;;;1.70;;
64426;SDS011;50772;51.482;-0.580;2023-07-29T20:23:57;4.78;;;1.48;;
64426;SDS011;50772;51.482;-0.580;2023-07-29T20:26:23;4.78;;;1.40;;
64426;SDS011;50772;51.482;-0.580;2023-07-29T20:28:48;4.57;;;1.65;;
64426;SDS011;50772;51.482;-0.580;2023-07-29T20:31:13;4.85;;;1.40;;
64426;SDS011;50772;51.482;-0.580;2023-07-29T20:33:39;3.97;;;1.33;;
64426;SDS011;50772;51.482;-0.580;2023-07-29T20:36:04;6.97;;;1.50;;
64426;SDS011;50772;51.482;-0.580;2023-07-29T20:38:30;5.40;;;1.75;;
64426;SDS011;50772;51.482;-0.580;2023-07-29T20:43:30;4.95;;;1.27;;
64426;SDS011;50772;51.482;-0.580;2023-07-29T20:45:55;2.67;;;1.52;;
64426;SDS011;50772;51.482;-0.580;2023-07-29T20:48:21;3.38;;;1.52;;
64426;SDS011;50772;51.482;-0.580;2023-07-29T20:50:47;3.70;;;0.98;;
64426;SDS011;50772;51.482;-0.580;2023-07-29T20:53:15;5.30;;;1.57;;
64426;SDS011;50772;51.482;-0.580;2023-07-29T20:55:40;2.40;;;1.70;;
64426;SDS011;50772;51.482;-0.580;2023-07-29T20:58:07;2.33;;;1.23;;
64426;SDS011;50772;51.482;-0.580;2023-07-29T21:00:35;2.60;;;1.48;;
64426;SDS011;50772;51.482;-0.580;2023-07-29T21:05:40;4.10;;;1.25;;
64426;SDS011;50772;51.482;-0.580;2023-07-29T21:08:12;4.90;;;1.50;;
64426;SDS011;50772;51.482;-0.580;2023-07-29T21:10:38;6.18;;;1.98;;
64426;SDS011;50772;51.482;-0.580;2023-07-29T21:13:03;2.55;;;1.70;;
64426;SDS011;50772;51.482;-0.580;2023-07-29T21:15:31;5.00;;;1.40;;
64426;SDS011;50772;51.482;-0.580;2023-07-29T21:18:05;2.60;;;1.30;;
64426;SDS011;50772;51.482;-0.580;2023-07-29T21:20:43;2.80;;;1.50;;
64426;SDS011;50772;51.482;-0.580;2023-07-29T21:23:11;3.40;;;1.45;;
64426;SDS011;50772;51.482;-0.580;2023-07-29T21:25:37;3.53;;;1.50;;
64426;SDS011;50772;51.482;-0.580;2023-07-29T21:28:05;1.63;;;1.35;;
64426;SDS011;50772;51.482;-0.580;2023-07-29T21:30:33;5.43;;;2.22;;
64426;SDS011;50772;51.482;-0.580;2023-07-29T21:32:59;4.10;;;1.63;;
64426;SDS011;50772;51.482;-0.580;2023-07-29T21:35:26;2.65;;;1.48;;
64426;SDS011;50772;51.482;-0.580;2023-07-29T21:37:52;6.20;;;1.90;;
64426;SDS011;50772;51.482;-0.580;2023-07-29T21:40:23;5.60;;;1.88;;
64426;SDS011;50772;51.482;-0.580;2023-07-29T21:42:51;6.43;;;1.52;;
64426;SDS011;50772;51.482;-0.580;2023-07-29T21:45:16;3.88;;;1.50;;
64426;SDS011;50772;51.482;-0.580;2023-07-29T21:47:42;2.10;;;1.20;;
64426;SDS011;50772;51.482;-0.580;2023-07-29T21:50:09;5.05;;;1.50;;
64426;SDS011;50772;51.482;-0.580;2023-07-29T21:52:35;3.90;;;1.17;;
64426;SDS011;50772;51.482;-0.580;2023-07-29T21:55:00;4.47;;;1.45;;
64426;SDS011;50772;51.482;-0.580;2023-07-29T21:57:28;3.65;;;1.25;;
64426;SDS011;50772;51.482;-0.580;2023-07-29T21:59:55;3.83;;;1.50;;
64426;SDS011;50772;51.482;-0.580;2023-07-29T22:02:21;2.97;;;1.50;;
64426;SDS011;50772;51.482;-0.580;2023-07-29T22:04:46;4.75;;;1.35;;
64426;SDS011;50772;51.482;-0.580;2023-07-29T22:07:11;8.77;;;1.60;;
64426;SDS011;50772;51.482;-0.580;2023-07-29T22:09:37;2.65;;;1.63;;
64426;SDS011;50772;51.482;-0.580;2023-07-29T22:12:03;6.50;;;1.40;;
64426;SDS011;50772;51.482;-0.580;2023-07-29T22:14:28;2.78;;;1.40;;
64426;SDS011;50772;51.482;-0.580;2023-07-29T22:16:53;4.68;;;1.33;;
64426;SDS011;50772;51.482;-0.580;2023-07-29T22:19:19;3.92;;;1.60;;
64426;SDS011;50772;51.482;-0.580;2023-07-29T22:21:45;3.83;;;1.45;;